La Quiaca, Argentina
Current Conditions -  °F | °C
As of 8:00 PM on Tuesday 21 Oct 2014 (Local Time) from SLTJ Reporting Station
Overcast Overcast  
Wind Chill: 19°   Ceiling: 1000
Heat Index: 19°   Visibility: 6mi
Dew Point: 14°   Wind: 9mph
Humidity: 73%   Direction: 220°SW
Pressure: 30.21"   Gusts: NA
Location:  22.11°S, 65.59°W
Report Text: SLTJ 212300Z 22008KT 9999 SCT030 FEW033CB OVC0100 19/14 Q1023
Loading
Personal Weather Stations






























Interactive Weather Map
Tropical Storm Tracking
New forecast layout! Learn more

10-Day Weather Forecast

Advertisements
Track Severe Weather on mobile